Eagle Lake, Minnesota
Current Conditions -  °F | °C
As of 10:15 PM on Tuesday 21 Oct 2014 (Local Time) from KMKT Reporting Station
Clear Clear  
Wind Chill:   Ceiling: Unl
Heat Index:   Visibility: 10mi
Dew Point:   Wind: 13mph
Humidity: 62%   Direction: 140°SE
Pressure: 30.15"   Gusts: NA
Location:  44.16°N, 93.88°W
Report Text: KMKT 220315Z AUTO 14011KT 10SM CLR 09/02 A3015 RMK AO1
Loading
Personal Weather Stations






























Interactive Weather Map
Tropical Storm Tracking
New forecast layout! Learn more

10-Day Weather Forecast

Advertisements
Track Severe Weather on mobile